createdAt,value
2023-03-17T00:00:48.047Z,40.20
2023-03-17T00:03:27.882Z,44.20
2023-03-17T00:05:58.806Z,44.40
2023-03-17T00:08:36.677Z,49.20
2023-03-17T00:11:11.819Z,45.50
2023-03-17T00:13:42.343Z,51.90
2023-03-17T00:16:18.792Z,49.90
2023-03-17T00:18:48.764Z,53.40
2023-03-17T00:21:29.161Z,43.50
2023-03-17T00:24:00.240Z,47.80
2023-03-17T00:26:29.174Z,50.00
2023-03-17T00:28:58.227Z,47.80
2023-03-17T00:31:30.247Z,45.90
2023-03-17T00:33:59.433Z,46.30
2023-03-17T00:36:33.637Z,41.00
2023-03-17T00:41:44.993Z,49.90
2023-03-17T00:44:14.750Z,42.70
2023-03-17T00:46:43.764Z,44.80
2023-03-17T00:49:21.599Z,47.60
2023-03-17T00:51:51.355Z,44.80
2023-03-17T00:54:21.027Z,34.30
2023-03-17T00:56:52.467Z,48.70
2023-03-17T00:59:26.849Z,44.90
2023-03-17T01:01:56.835Z,42.40
2023-03-17T01:04:25.988Z,36.60
2023-03-17T01:06:54.805Z,45.20
2023-03-17T01:09:27.498Z,32.90
2023-03-17T01:11:56.573Z,41.90
2023-03-17T01:14:25.383Z,38.60
2023-03-17T01:16:55.799Z,36.90
2023-03-17T01:19:24.766Z,35.70
2023-03-17T01:21:53.641Z,34.70
2023-03-17T01:24:22.800Z,33.60
2023-03-17T01:26:52.238Z,33.60
2023-03-17T01:29:21.991Z,31.50
2023-03-17T01:31:53.849Z,31.30
2023-03-17T01:34:23.539Z,35.20
2023-03-17T01:36:52.355Z,37.30
2023-03-17T01:39:21.333Z,22.80
2023-03-17T01:41:57.319Z,42.10
2023-03-17T01:44:25.989Z,30.40
2023-03-17T01:46:55.021Z,34.40
2023-03-17T01:49:36.041Z,36.30
2023-03-17T01:52:17.476Z,30.80
2023-03-17T01:55:10.935Z,42.10
2023-03-17T01:57:45.895Z,33.10
2023-03-17T02:00:19.074Z,29.30
2023-03-17T02:02:51.704Z,24.20
2023-03-17T02:05:25.011Z,26.30
2023-03-17T02:07:56.153Z,27.30
2023-03-17T02:10:30.536Z,18.30
2023-03-17T02:13:04.257Z,25.00
2023-03-17T02:15:44.854Z,24.50
2023-03-17T02:18:14.790Z,20.80
2023-03-17T02:20:47.368Z,25.70
2023-03-17T02:23:22.653Z,27.20
2023-03-17T02:25:53.634Z,25.90
2023-03-17T02:28:30.229Z,20.90
2023-03-17T02:30:59.149Z,19.10
2023-03-17T02:33:28.405Z,19.90
2023-03-17T02:35:57.380Z,23.90
2023-03-17T02:38:26.845Z,24.70
2023-03-17T02:40:55.495Z,32.20
2023-03-17T02:43:24.247Z,21.80
2023-03-17T02:45:53.317Z,19.30
2023-03-17T02:48:23.239Z,23.70
2023-03-17T02:50:51.789Z,20.20
2023-03-17T02:53:21.275Z,22.50
2023-03-17T02:55:50.718Z,19.40
2023-03-17T02:58:19.270Z,20.10
2023-03-17T03:00:49.246Z,20.40
2023-03-17T03:05:47.701Z,14.00
2023-03-17T03:08:17.253Z,15.40
2023-03-17T03:10:47.116Z,18.20
2023-03-17T03:13:15.591Z,18.10
2023-03-17T03:15:44.597Z,17.70
2023-03-17T03:18:13.550Z,12.80
2023-03-17T03:20:44.805Z,15.40
2023-03-17T03:23:14.647Z,14.50
2023-03-17T03:25:43.739Z,19.40
2023-03-17T03:28:12.364Z,15.90
2023-03-17T03:30:42.520Z,16.30
2023-03-17T03:33:13.679Z,16.50
2023-03-17T03:35:43.350Z,17.40
2023-03-17T03:38:12.878Z,13.00
2023-03-17T03:40:41.846Z,15.50
2023-03-17T03:43:22.353Z,14.50
2023-03-17T03:45:52.397Z,15.50
2023-03-17T03:48:22.273Z,16.50
2023-03-17T03:50:50.918Z,17.40
2023-03-17T03:53:19.917Z,17.70
2023-03-17T03:55:48.768Z,16.00
2023-03-17T03:58:17.677Z,12.10
2023-03-17T04:00:47.099Z,11.20
2023-03-17T04:03:16.485Z,12.70
2023-03-17T04:05:45.709Z,20.00
2023-03-17T04:08:14.581Z,19.30
2023-03-17T04:10:43.181Z,13.80
2023-03-17T04:13:11.984Z,14.70
2023-03-17T04:15:41.285Z,14.10
2023-03-17T04:18:10.301Z,16.90
2023-03-17T04:20:39.186Z,21.90
2023-03-17T04:23:08.521Z,11.60
2023-03-17T04:25:37.521Z,15.50
2023-03-17T04:28:06.691Z,20.70
2023-03-17T04:30:35.684Z,14.90
2023-03-17T04:33:04.431Z,19.10
2023-03-17T04:35:33.073Z,23.50
2023-03-17T04:38:02.160Z,22.30
2023-03-17T04:40:31.551Z,23.20
2023-03-17T04:43:02.435Z,28.80
2023-03-17T04:45:33.064Z,25.10
2023-03-17T04:48:01.824Z,20.40
2023-03-17T04:50:30.681Z,20.00
2023-03-17T04:52:59.960Z,27.80
2023-03-17T04:55:29.004Z,26.80
2023-03-17T04:57:57.501Z,24.30
2023-03-17T05:00:27.217Z,24.40
2023-03-17T05:02:55.926Z,26.70
2023-03-17T05:05:24.550Z,30.60
2023-03-17T05:07:53.621Z,40.80
2023-03-17T05:10:22.555Z,37.00
2023-03-17T05:12:54.211Z,58.20
2023-03-17T05:15:23.656Z,33.90
2023-03-17T05:17:52.143Z,31.60
2023-03-17T05:20:20.723Z,31.30
2023-03-17T05:22:49.634Z,37.60
2023-03-17T05:25:18.253Z,25.80
2023-03-17T05:27:46.791Z,25.90
2023-03-17T05:30:16.235Z,28.60
2023-03-17T05:32:44.823Z,24.20
2023-03-17T05:35:13.893Z,36.20
2023-03-17T05:37:42.998Z,27.00
2023-03-17T05:40:13.152Z,27.10
2023-03-17T05:42:42.959Z,29.60
2023-03-17T05:45:12.594Z,33.90
2023-03-17T05:47:41.084Z,28.90
2023-03-17T05:50:14.264Z,25.40
2023-03-17T05:52:43.615Z,25.90
2023-03-17T05:55:12.870Z,28.60
2023-03-17T05:57:41.970Z,23.20
2023-03-17T06:00:12.840Z,22.40
2023-03-17T06:02:42.300Z,31.80
2023-03-17T06:05:11.507Z,18.70
2023-03-17T06:07:53.092Z,18.90
2023-03-17T06:10:25.573Z,26.90
2023-03-17T06:15:23.047Z,18.40
2023-03-17T06:17:52.537Z,25.40
2023-03-17T06:20:22.217Z,19.00
2023-03-17T06:23:03.485Z,21.70
2023-03-17T06:25:35.567Z,25.40
2023-03-17T06:28:05.877Z,24.60
2023-03-17T06:30:39.394Z,21.60
2023-03-17T06:33:09.377Z,24.20
2023-03-17T06:35:39.308Z,17.90
2023-03-17T06:38:07.971Z,38.80
2023-03-17T06:40:37.236Z,17.50
2023-03-17T06:43:06.097Z,16.90
2023-03-17T06:45:35.139Z,21.90
2023-03-17T06:48:03.907Z,14.70
2023-03-17T06:50:33.591Z,15.60
2023-03-17T06:53:02.491Z,19.90
2023-03-17T06:55:32.365Z,17.40
2023-03-17T06:58:03.580Z,13.80
2023-03-17T07:00:33.335Z,23.60
2023-03-17T07:03:03.369Z,11.60
2023-03-17T07:05:34.113Z,11.90
2023-03-17T07:08:02.705Z,64.90
2023-03-17T07:10:31.825Z,22.80
2023-03-17T07:13:01.234Z,16.40
2023-03-17T07:15:35.092Z,10.30
2023-03-17T07:18:05.404Z,11.50
2023-03-17T07:23:04.049Z,14.50
2023-03-17T07:25:37.026Z,9.40
2023-03-17T07:28:06.174Z,13.60
2023-03-17T07:30:35.088Z,15.90
2023-03-17T07:33:04.596Z,16.90
2023-03-17T07:35:35.088Z,17.80
2023-03-17T07:38:04.196Z,15.60
2023-03-17T07:40:35.242Z,14.10
2023-03-17T07:43:05.249Z,18.30
2023-03-17T07:45:36.438Z,19.70
2023-03-17T07:48:06.930Z,17.20
2023-03-17T07:50:37.232Z,15.00
2023-03-17T07:53:05.912Z,20.30
2023-03-17T07:55:36.333Z,13.20
2023-03-17T08:00:35.210Z,20.00
2023-03-17T08:03:10.354Z,15.60
2023-03-17T08:05:40.142Z,15.20
2023-03-17T08:08:09.669Z,17.10
2023-03-17T08:10:38.590Z,15.30
2023-03-17T08:13:07.969Z,15.70
2023-03-17T08:15:37.553Z,19.30
2023-03-17T08:18:06.322Z,16.20
2023-03-17T08:20:35.904Z,17.90
2023-03-17T08:23:05.417Z,20.70
2023-03-17T08:25:34.407Z,15.50
2023-03-17T08:28:04.929Z,11.70
2023-03-17T08:30:35.576Z,17.00
2023-03-17T08:33:09.325Z,10.40
2023-03-17T08:35:42.295Z,10.60
2023-03-17T08:38:11.514Z,11.40
2023-03-17T08:40:40.683Z,15.90
2023-03-17T08:43:09.349Z,21.80
2023-03-17T08:45:39.389Z,16.90
2023-03-17T08:48:08.656Z,16.80
2023-03-17T08:50:37.980Z,12.60
2023-03-17T08:53:06.743Z,18.20
2023-03-17T08:55:35.622Z,19.90
2023-03-17T08:58:05.819Z,15.30
2023-03-17T09:00:34.964Z,22.60
2023-03-17T09:03:04.173Z,17.40
2023-03-17T09:05:59.709Z,11.90
2023-03-17T09:08:45.226Z,12.00
2023-03-17T09:11:19.328Z,14.80
2023-03-17T09:13:49.086Z,12.90
2023-03-17T09:16:20.577Z,10.80
2023-03-17T09:21:19.277Z,11.50
2023-03-17T09:23:48.568Z,10.40
2023-03-17T09:26:17.724Z,11.20
2023-03-17T09:28:46.353Z,11.30
2023-03-17T09:31:15.224Z,9.00
2023-03-17T09:33:44.239Z,10.40
2023-03-17T09:36:13.845Z,12.10
2023-03-17T09:38:42.680Z,13.00
2023-03-17T09:41:20.289Z,13.20
2023-03-17T09:43:57.956Z,9.40
2023-03-17T09:47:01.063Z,9.40
2023-03-17T09:49:47.320Z,9.20
2023-03-17T09:52:18.981Z,6.00
2023-03-17T09:55:08.875Z,10.10
2023-03-17T09:57:40.664Z,9.20
2023-03-17T10:00:27.063Z,9.90
2023-03-17T10:03:00.164Z,6.80
2023-03-17T10:05:36.088Z,15.50
2023-03-17T10:08:31.395Z,8.30
2023-03-17T10:11:11.366Z,8.30
2023-03-17T10:13:58.396Z,14.30
2023-03-17T10:16:43.442Z,14.50
2023-03-17T10:19:27.790Z,8.60
2023-03-17T10:22:04.573Z,12.80
2023-03-17T10:24:34.813Z,7.70
2023-03-17T10:27:06.663Z,11.90
2023-03-17T10:29:37.567Z,8.90
2023-03-17T10:32:12.781Z,10.40
2023-03-17T10:34:43.169Z,11.80
2023-03-17T10:37:21.690Z,14.30
2023-03-17T10:39:56.529Z,13.20
2023-03-17T10:42:32.584Z,15.00
2023-03-17T10:45:28.087Z,12.20
2023-03-17T10:47:59.200Z,12.30
2023-03-17T10:50:31.019Z,10.50
2023-03-17T10:53:11.209Z,10.80
2023-03-17T10:55:50.077Z,12.50
2023-03-17T10:58:39.588Z,14.80
2023-03-17T11:01:21.283Z,22.70
2023-03-17T11:03:50.306Z,13.30
2023-03-17T11:06:26.350Z,19.80
2023-03-17T11:08:56.220Z,8.50
2023-03-17T11:11:35.058Z,10.80
2023-03-17T11:14:14.347Z,12.00
2023-03-17T11:17:04.652Z,14.90
2023-03-17T11:19:36.686Z,9.70
2023-03-17T11:22:10.359Z,14.80
2023-03-17T11:24:51.531Z,10.10
2023-03-17T11:27:43.948Z,10.40
2023-03-17T11:30:37.437Z,10.90
2023-03-17T11:33:18.808Z,11.60
2023-03-17T11:36:06.559Z,13.00
2023-03-17T11:38:42.148Z,8.70
2023-03-17T11:41:31.924Z,13.10
2023-03-17T11:44:12.127Z,22.40
2023-03-17T11:46:47.058Z,11.30
2023-03-17T11:49:22.632Z,11.60
2023-03-17T11:52:12.920Z,13.90
2023-03-17T11:55:06.104Z,12.10
2023-03-17T11:57:40.085Z,12.90
2023-03-17T12:00:17.224Z,10.70
2023-03-17T12:02:57.029Z,10.60
2023-03-17T12:05:27.864Z,13.90
2023-03-17T12:08:02.520Z,21.40
2023-03-17T12:10:40.928Z,16.70
2023-03-17T12:13:17.039Z,16.10
2023-03-17T12:15:51.528Z,15.20
2023-03-17T12:18:36.571Z,12.30
2023-03-17T12:21:16.041Z,11.00
2023-03-17T12:23:52.701Z,11.30
2023-03-17T12:26:33.805Z,16.40
2023-03-17T12:29:26.188Z,18.60
2023-03-17T12:32:12.772Z,20.80
2023-03-17T12:35:06.382Z,20.00
2023-03-17T12:37:35.164Z,23.50
2023-03-17T12:40:10.740Z,19.70
2023-03-17T12:42:55.248Z,16.60
2023-03-17T12:45:49.081Z,14.20
2023-03-17T12:48:30.107Z,18.60
2023-03-17T12:51:20.889Z,21.80
2023-03-17T12:53:51.876Z,19.10
2023-03-17T12:56:30.249Z,13.00
2023-03-17T12:59:16.463Z,15.30
2023-03-17T13:01:53.700Z,13.50
2023-03-17T13:04:33.379Z,14.20
2023-03-17T13:07:17.575Z,18.30
2023-03-17T13:10:33.879Z,14.40
2023-03-17T13:13:36.120Z,12.20
2023-03-17T13:16:06.773Z,11.90
2023-03-17T13:18:35.385Z,14.50
2023-03-17T13:21:04.538Z,18.50
2023-03-17T13:23:35.004Z,16.70
2023-03-17T13:26:04.739Z,24.20
2023-03-17T13:28:37.358Z,15.80
2023-03-17T13:31:28.792Z,14.50
2023-03-17T13:34:15.760Z,11.20
2023-03-17T13:36:48.208Z,14.60
2023-03-17T13:39:31.491Z,12.80
2023-03-17T13:42:19.034Z,11.80
2023-03-17T13:45:17.196Z,13.20
2023-03-17T13:47:47.468Z,11.20
2023-03-17T13:50:23.961Z,9.20
2023-03-17T13:53:05.133Z,13.50
2023-03-17T13:55:36.638Z,14.00
2023-03-17T13:58:11.148Z,9.90
2023-03-17T14:00:44.321Z,15.10
2023-03-17T14:03:18.310Z,13.60
2023-03-17T14:05:49.991Z,15.20
2023-03-17T14:08:20.639Z,13.30
2023-03-17T14:11:02.583Z,14.70
2023-03-17T14:13:42.864Z,15.70
2023-03-17T14:16:27.392Z,15.70
2023-03-17T14:19:01.593Z,13.80
2023-03-17T14:21:32.630Z,15.80
2023-03-17T14:24:16.346Z,14.00
2023-03-17T14:26:45.298Z,13.20
2023-03-17T14:29:17.188Z,19.70
2023-03-17T14:31:53.262Z,22.50
2023-03-17T14:34:23.306Z,16.10
2023-03-17T14:36:52.430Z,19.50
2023-03-17T14:39:26.233Z,22.20
2023-03-17T14:42:03.299Z,22.70
2023-03-17T14:44:44.886Z,21.00
2023-03-17T14:47:24.875Z,22.70
2023-03-17T14:49:54.954Z,18.40
2023-03-17T14:54:59.826Z,19.50
2023-03-17T14:57:33.186Z,23.90
2023-03-17T15:00:16.236Z,36.50
2023-03-17T15:02:57.949Z,32.10
2023-03-17T15:05:36.240Z,44.30
2023-03-17T15:08:42.966Z,69.20
2023-03-17T15:11:23.807Z,43.70
2023-03-17T15:14:15.297Z,39.40
2023-03-17T15:16:53.497Z,92.30
2023-03-17T15:19:30.423Z,72.30
2023-03-17T15:22:00.900Z,54.50
2023-03-17T15:24:40.449Z,30.10
2023-03-17T15:27:18.457Z,24.30
2023-03-17T15:29:48.550Z,23.30
2023-03-17T15:32:20.780Z,23.10
2023-03-17T15:34:52.255Z,36.40
2023-03-17T15:37:26.993Z,31.00
2023-03-17T15:39:56.766Z,27.10
2023-03-17T15:42:28.698Z,21.30
2023-03-17T15:45:00.326Z,17.10
2023-03-17T15:47:32.679Z,18.70
2023-03-17T15:50:22.223Z,28.10
2023-03-17T15:52:54.273Z,16.50
2023-03-17T15:55:26.114Z,23.20
2023-03-17T15:57:55.693Z,29.80
2023-03-17T16:02:59.048Z,19.50
2023-03-17T16:05:32.103Z,41.60
2023-03-17T16:08:01.346Z,27.40
2023-03-17T16:10:32.844Z,25.70
2023-03-17T16:13:02.140Z,27.00
2023-03-17T16:15:35.446Z,32.50
2023-03-17T16:18:07.847Z,29.70
2023-03-17T16:21:04.555Z,32.10
2023-03-17T16:23:37.110Z,56.40
2023-03-17T16:26:16.523Z,54.00
2023-03-17T16:28:47.909Z,50.10
2023-03-17T16:31:25.910Z,48.30
2023-03-17T16:33:55.328Z,51.50
2023-03-17T16:36:25.196Z,63.20
2023-03-17T16:38:54.005Z,74.30
2023-03-17T16:41:27.845Z,76.70
2023-03-17T16:44:06.858Z,67.60
2023-03-17T16:46:35.841Z,84.30
2023-03-17T16:49:05.377Z,65.60
2023-03-17T16:51:34.262Z,98.70
2023-03-17T16:54:02.792Z,51.80
2023-03-17T16:56:32.038Z,41.40
2023-03-17T16:59:01.922Z,33.90
2023-03-17T17:01:30.676Z,70.60
2023-03-17T17:03:59.544Z,77.50
2023-03-17T17:06:28.364Z,80.00
2023-03-17T17:08:59.879Z,47.70
2023-03-17T17:11:28.682Z,45.80
2023-03-17T17:13:58.828Z,85.30
2023-03-17T17:19:00.664Z,43.00
2023-03-17T17:21:29.625Z,25.50
2023-03-17T17:23:58.921Z,22.30
2023-03-17T17:26:28.280Z,28.30
2023-03-17T17:28:57.210Z,22.90
2023-03-17T17:31:25.909Z,20.60
2023-03-17T17:33:55.842Z,29.00
2023-03-17T17:36:26.545Z,58.20
2023-03-17T17:38:55.245Z,30.30
2023-03-17T17:41:24.692Z,26.20
2023-03-17T17:43:54.253Z,26.30
2023-03-17T17:46:23.597Z,36.50
2023-03-17T17:48:53.061Z,35.80
2023-03-17T17:51:21.618Z,39.20
2023-03-17T17:53:50.404Z,55.80
2023-03-17T17:56:19.441Z,67.70
2023-03-17T17:58:48.096Z,41.30
2023-03-17T18:01:20.270Z,33.40
2023-03-17T18:04:02.809Z,25.00
2023-03-17T18:06:57.288Z,25.50
2023-03-17T18:09:46.180Z,24.10
2023-03-17T18:12:38.305Z,24.60
2023-03-17T18:15:28.123Z,38.80
2023-03-17T18:18:18.786Z,25.40
2023-03-17T18:21:15.192Z,18.20
2023-03-17T18:24:01.388Z,23.10
2023-03-17T18:26:53.244Z,21.60
2023-03-17T18:29:43.258Z,15.30
2023-03-17T18:32:38.867Z,30.90
2023-03-17T18:35:30.599Z,22.60
2023-03-17T18:38:20.859Z,26.90
2023-03-17T18:41:07.005Z,20.70
2023-03-17T18:43:46.067Z,28.60
2023-03-17T18:46:16.729Z,88.20
2023-03-17T18:48:45.708Z,66.70
2023-03-17T18:51:14.856Z,43.30
2023-03-17T18:53:43.815Z,41.50
2023-03-17T18:56:12.744Z,33.90
2023-03-17T18:58:41.699Z,37.90
2023-03-17T19:01:10.587Z,25.40
2023-03-17T19:03:39.693Z,16.60
2023-03-17T19:06:14.110Z,20.10
2023-03-17T19:08:43.192Z,25.50
2023-03-17T19:11:14.190Z,20.80
2023-03-17T19:13:43.803Z,22.30
2023-03-17T19:16:13.521Z,19.90
2023-03-17T19:18:42.483Z,18.10
2023-03-17T19:21:13.816Z,20.40
2023-03-17T19:23:43.001Z,24.90
2023-03-17T19:26:11.936Z,18.50
2023-03-17T19:28:41.305Z,22.00
2023-03-17T19:31:10.316Z,19.40
2023-03-17T19:33:39.025Z,25.50
2023-03-17T19:36:12.266Z,75.20
2023-03-17T19:38:42.180Z,36.60
2023-03-17T19:41:11.042Z,28.50
2023-03-17T19:43:41.649Z,20.50
2023-03-17T19:46:12.131Z,24.30
2023-03-17T19:48:41.433Z,23.00
2023-03-17T19:51:10.045Z,26.50
2023-03-17T19:53:38.990Z,23.90
2023-03-17T19:56:08.194Z,27.00
2023-03-17T19:58:37.915Z,17.70
2023-03-17T20:01:07.974Z,22.90
2023-03-17T20:03:47.510Z,117.70
2023-03-17T20:06:17.148Z,33.60
2023-03-17T20:08:46.216Z,25.70
2023-03-17T20:11:19.613Z,25.00
2023-03-17T20:13:50.296Z,20.70
2023-03-17T20:16:20.017Z,13.80
2023-03-17T20:18:48.827Z,20.80
2023-03-17T20:21:17.665Z,22.50
2023-03-17T20:23:46.668Z,28.30
2023-03-17T20:26:15.923Z,19.80
2023-03-17T20:28:44.956Z,20.90
2023-03-17T20:31:14.044Z,18.10
2023-03-17T20:33:44.177Z,23.70
2023-03-17T20:36:14.337Z,28.60
2023-03-17T20:38:44.090Z,20.70
2023-03-17T20:41:16.517Z,20.50
2023-03-17T20:43:47.521Z,15.80
2023-03-17T20:46:19.784Z,21.90
2023-03-17T20:48:49.022Z,19.90
2023-03-17T20:51:18.917Z,36.10
2023-03-17T20:54:00.150Z,23.80
2023-03-17T20:56:30.927Z,29.80
2023-03-17T20:59:04.359Z,40.70
2023-03-17T21:01:38.959Z,18.40
2023-03-17T21:04:12.984Z,16.10
2023-03-17T21:06:43.145Z,15.60
2023-03-17T21:09:12.288Z,17.90
2023-03-17T21:11:42.062Z,19.30
2023-03-17T21:14:14.001Z,14.60
2023-03-17T21:16:43.232Z,15.00
2023-03-17T21:19:17.512Z,16.80
2023-03-17T21:21:46.080Z,14.40
2023-03-17T21:24:26.163Z,14.30
2023-03-17T21:26:55.878Z,14.90
2023-03-17T21:29:24.974Z,14.80
2023-03-17T21:31:54.498Z,15.80
2023-03-17T21:34:25.561Z,13.00
2023-03-17T21:36:54.951Z,13.30
2023-03-17T21:42:01.218Z,15.30
2023-03-17T21:44:30.372Z,14.20
2023-03-17T21:47:03.537Z,12.60
2023-03-17T21:49:32.712Z,13.50
2023-03-17T21:52:04.851Z,12.20
2023-03-17T21:54:36.408Z,12.60
2023-03-17T21:57:05.147Z,13.20
2023-03-17T21:59:36.013Z,12.30
2023-03-17T22:02:07.000Z,12.20
2023-03-17T22:04:35.818Z,12.10
2023-03-17T22:07:04.796Z,14.30
2023-03-17T22:09:34.071Z,15.40
2023-03-17T22:12:04.614Z,17.20
2023-03-17T22:14:35.955Z,13.60
2023-03-17T22:17:05.792Z,14.00
2023-03-17T22:19:34.768Z,10.10
2023-03-17T22:22:04.202Z,12.50
2023-03-17T22:24:33.550Z,12.00
2023-03-17T22:27:02.399Z,10.80
2023-03-17T22:29:31.960Z,12.80
2023-03-17T22:32:01.693Z,16.10
2023-03-17T22:34:30.357Z,10.10
2023-03-17T22:36:59.401Z,10.30
2023-03-17T22:39:28.995Z,10.10
2023-03-17T22:41:57.494Z,17.80
2023-03-17T22:44:26.781Z,18.40
2023-03-17T22:46:56.454Z,11.30
2023-03-17T22:49:25.529Z,7.80
2023-03-17T22:51:54.291Z,13.30
2023-03-17T22:54:23.435Z,19.30
2023-03-17T22:56:52.092Z,36.90
2023-03-17T22:59:21.104Z,18.50
2023-03-17T23:01:50.262Z,51.50
2023-03-17T23:04:21.224Z,34.90
2023-03-17T23:06:50.522Z,16.00
2023-03-17T23:09:19.968Z,15.20
2023-03-17T23:11:48.476Z,9.00
2023-03-17T23:14:17.351Z,13.70
2023-03-17T23:16:47.375Z,13.00
2023-03-17T23:19:16.052Z,11.90
2023-03-17T23:21:45.045Z,13.60
2023-03-17T23:24:14.098Z,11.30
2023-03-17T23:26:42.786Z,11.70
2023-03-17T23:29:11.955Z,11.50
2023-03-17T23:31:41.344Z,13.20
2023-03-17T23:34:10.040Z,14.80
2023-03-17T23:36:40.470Z,14.10
2023-03-17T23:39:10.007Z,11.90
2023-03-17T23:41:39.248Z,9.10
2023-03-17T23:44:10.443Z,11.90
2023-03-17T23:46:39.847Z,10.50
2023-03-17T23:49:08.403Z,8.50
2023-03-17T23:51:37.139Z,11.70
2023-03-17T23:54:07.975Z,15.70
2023-03-17T23:56:36.796Z,14.30
2023-03-17T23:59:08.657Z,16.30
